createdAt,value
2023-02-09T00:00:31.744Z,81.18
2023-02-09T00:03:03.771Z,81.88
2023-02-09T00:05:35.176Z,81.18
2023-02-09T00:08:05.586Z,82.11
2023-02-09T00:10:35.966Z,82.36
2023-02-09T00:13:06.519Z,82.55
2023-02-09T00:15:36.774Z,82.41
2023-02-09T00:18:07.768Z,82.08
2023-02-09T00:20:38.290Z,81.62
2023-02-09T00:23:08.708Z,82.02
2023-02-09T00:25:40.066Z,82.02
2023-02-09T00:28:10.446Z,81.64
2023-02-09T00:30:40.804Z,81.34
2023-02-09T00:33:11.824Z,82.00
2023-02-09T00:36:02.710Z,82.31
2023-02-09T00:38:34.012Z,82.41
2023-02-09T00:41:04.900Z,82.28
2023-02-09T00:43:36.515Z,82.28
2023-02-09T00:46:07.319Z,81.43
2023-02-09T00:48:37.701Z,81.43
2023-02-09T00:51:08.044Z,81.96
2023-02-09T00:53:39.097Z,81.89
2023-02-09T00:56:09.563Z,81.74
2023-02-09T00:58:41.059Z,81.65
2023-02-09T01:01:12.652Z,81.75
2023-02-09T01:03:43.638Z,82.19
2023-02-09T01:06:13.956Z,82.01
2023-02-09T01:08:44.739Z,82.11
2023-02-09T01:11:17.527Z,82.48
2023-02-09T01:13:48.137Z,82.38
2023-02-09T01:16:19.021Z,82.58
2023-02-09T01:18:49.609Z,82.78
2023-02-09T01:21:24.387Z,82.88
2023-02-09T01:23:55.117Z,82.57
2023-02-09T01:26:25.739Z,82.23
2023-02-09T01:28:56.310Z,82.52
2023-02-09T01:31:39.979Z,82.24
2023-02-09T01:34:15.904Z,82.43
2023-02-09T01:36:46.551Z,82.16
2023-02-09T01:39:37.683Z,81.58
2023-02-09T01:42:10.831Z,81.58
2023-02-09T01:44:44.356Z,81.93
2023-02-09T01:47:16.956Z,82.55
2023-02-09T01:49:50.277Z,82.55
2023-02-09T01:52:23.671Z,82.55
2023-02-09T01:54:59.678Z,82.76
2023-02-09T01:57:38.438Z,82.69
2023-02-09T02:00:11.891Z,83.07
2023-02-09T02:02:50.921Z,83.31
2023-02-09T02:05:23.153Z,82.80
2023-02-09T02:08:05.398Z,82.69
2023-02-09T02:10:36.185Z,83.10
2023-02-09T02:13:06.544Z,82.93
2023-02-09T02:18:43.942Z,82.76
2023-02-09T02:24:05.319Z,84.77
2023-02-09T02:26:41.543Z,84.77
2023-02-09T02:29:37.092Z,83.48
2023-02-09T02:32:10.312Z,83.13
2023-02-09T02:35:14.167Z,83.32
2023-02-09T02:38:04.246Z,83.32
2023-02-09T02:40:45.159Z,83.42
2023-02-09T02:43:36.346Z,83.37
2023-02-09T02:46:14.394Z,83.37
2023-02-09T02:48:47.622Z,82.85
2023-02-09T02:51:35.892Z,83.54
2023-02-09T02:54:09.081Z,83.54
2023-02-09T02:56:42.916Z,83.72
2023-02-09T02:59:16.145Z,83.17
2023-02-09T03:02:01.466Z,83.49
2023-02-09T03:04:34.180Z,83.49
2023-02-09T03:07:08.908Z,83.13
2023-02-09T03:09:42.378Z,83.13
2023-02-09T03:12:19.598Z,82.28
2023-02-09T03:14:55.785Z,83.26
2023-02-09T03:17:47.187Z,82.79
2023-02-09T03:20:29.271Z,83.57
2023-02-09T03:23:02.143Z,83.57
2023-02-09T03:25:41.297Z,82.16
2023-02-09T03:28:20.738Z,82.70
2023-02-09T03:30:56.511Z,82.60
2023-02-09T03:33:29.644Z,83.71
2023-02-09T03:36:03.246Z,83.32
2023-02-09T03:38:36.064Z,83.81
2023-02-09T03:41:08.401Z,83.88
2023-02-09T03:43:38.647Z,83.90
2023-02-09T03:46:09.451Z,84.05
2023-02-09T03:48:40.303Z,84.42
2023-02-09T03:51:10.747Z,83.94
2023-02-09T03:53:41.289Z,84.03
2023-02-09T03:56:11.601Z,83.50
2023-02-09T03:58:42.000Z,83.90
2023-02-09T04:01:12.632Z,83.93
2023-02-09T04:03:43.255Z,83.87
2023-02-09T04:06:13.676Z,83.90
2023-02-09T04:08:44.706Z,83.69
2023-02-09T04:11:15.094Z,83.34
2023-02-09T04:13:46.678Z,83.08
2023-02-09T04:16:16.987Z,83.61
2023-02-09T04:18:47.951Z,83.49
2023-02-09T04:21:18.903Z,83.71
2023-02-09T04:23:49.407Z,83.71
2023-02-09T04:26:20.399Z,83.77
2023-02-09T04:28:51.252Z,84.01
2023-02-09T04:31:21.681Z,84.32
2023-02-09T04:33:51.951Z,84.01
2023-02-09T04:36:22.438Z,83.72
2023-02-09T04:38:52.814Z,84.07
2023-02-09T04:41:23.254Z,84.30
2023-02-09T04:43:53.736Z,84.36
2023-02-09T04:46:24.254Z,84.29
2023-02-09T04:48:55.331Z,82.67
2023-02-09T04:51:34.279Z,83.29
2023-02-09T04:54:04.765Z,83.76
2023-02-09T04:56:36.937Z,84.04
2023-02-09T04:59:08.935Z,84.05
2023-02-09T05:01:39.844Z,83.49
2023-02-09T05:04:10.146Z,83.35
2023-02-09T05:06:41.799Z,82.85
2023-02-09T05:09:12.129Z,83.13
2023-02-09T05:11:44.153Z,83.60
2023-02-09T05:14:15.098Z,83.60
2023-02-09T05:16:45.786Z,83.44
2023-02-09T05:19:16.578Z,83.57
2023-02-09T05:21:46.833Z,83.57
2023-02-09T05:24:30.474Z,83.24
2023-02-09T05:27:01.083Z,83.33
2023-02-09T05:29:31.538Z,83.33
2023-02-09T05:32:01.979Z,82.76
2023-02-09T05:34:32.631Z,83.02
2023-02-09T05:37:03.225Z,82.68
2023-02-09T05:39:33.608Z,82.70
2023-02-09T05:42:04.033Z,82.83
2023-02-09T05:44:34.804Z,82.83
2023-02-09T05:47:05.176Z,82.43
2023-02-09T05:49:35.931Z,82.58
2023-02-09T05:52:07.874Z,81.93
2023-02-09T05:54:38.707Z,82.06
2023-02-09T05:57:11.066Z,81.50
2023-02-09T05:59:42.901Z,82.19
2023-02-09T06:02:13.371Z,82.26
2023-02-09T06:04:43.803Z,82.26
2023-02-09T06:07:14.529Z,81.64
2023-02-09T06:09:44.821Z,81.57
2023-02-09T06:12:15.039Z,81.57
2023-02-09T06:14:45.648Z,81.43
2023-02-09T06:17:16.943Z,81.03
2023-02-09T06:19:48.263Z,80.89
2023-02-09T06:22:18.582Z,81.17
2023-02-09T06:24:48.866Z,80.72
2023-02-09T06:27:19.235Z,80.72
2023-02-09T06:29:49.507Z,80.29
2023-02-09T06:32:19.967Z,80.25
2023-02-09T06:34:50.242Z,80.58
2023-02-09T06:37:20.585Z,80.30
2023-02-09T06:39:51.111Z,80.10
2023-02-09T06:42:21.625Z,80.30
2023-02-09T06:44:52.270Z,80.32
2023-02-09T06:47:22.734Z,80.02
2023-02-09T06:49:53.225Z,79.66
2023-02-09T06:52:23.685Z,79.25
2023-02-09T06:54:54.179Z,79.04
2023-02-09T06:57:24.560Z,78.90
2023-02-09T06:59:55.686Z,78.59
2023-02-09T07:02:26.105Z,78.57
2023-02-09T07:04:56.943Z,77.90
2023-02-09T07:07:27.649Z,78.12
2023-02-09T07:09:58.993Z,78.33
2023-02-09T07:12:29.434Z,77.96
2023-02-09T07:15:00.250Z,77.94
2023-02-09T07:17:51.900Z,76.92
2023-02-09T07:20:22.690Z,77.48
2023-02-09T07:22:52.989Z,77.48
2023-02-09T07:25:23.389Z,77.00
2023-02-09T07:27:54.163Z,77.13
2023-02-09T07:30:24.680Z,76.65
2023-02-09T07:32:55.035Z,77.42
2023-02-09T07:35:25.881Z,77.37
2023-02-09T07:37:56.313Z,76.89
2023-02-09T07:40:26.871Z,76.58
2023-02-09T07:42:57.046Z,73.82
2023-02-09T07:45:27.612Z,71.54
2023-02-09T07:47:58.101Z,69.98
2023-02-09T07:50:28.585Z,68.46
2023-02-09T07:52:59.337Z,68.46
2023-02-09T07:55:30.213Z,65.47
2023-02-09T07:58:00.973Z,65.47
2023-02-09T08:00:31.614Z,62.21
2023-02-09T08:03:04.290Z,60.09
2023-02-09T08:05:40.256Z,57.05
2023-02-09T08:08:10.722Z,57.05
2023-02-09T08:10:42.713Z,53.76
2023-02-09T08:13:14.492Z,53.76
2023-02-09T08:15:48.926Z,49.34
2023-02-09T08:18:25.997Z,47.73
2023-02-09T08:20:56.900Z,45.94
2023-02-09T08:23:31.816Z,43.53
2023-02-09T08:26:05.937Z,43.70
2023-02-09T08:28:44.549Z,43.78
2023-02-09T08:31:13.078Z,41.11
2023-02-09T08:33:47.396Z,41.36
2023-02-09T08:36:19.466Z,38.39
2023-02-09T08:38:50.028Z,38.39
2023-02-09T08:41:20.345Z,39.67
2023-02-09T08:43:51.455Z,39.25
2023-02-09T08:46:22.484Z,39.48
2023-02-09T08:48:53.441Z,39.73
2023-02-09T08:51:27.303Z,39.73
2023-02-09T08:53:57.661Z,38.37
2023-02-09T08:56:28.105Z,39.31
2023-02-09T08:58:58.931Z,39.50
2023-02-09T09:01:29.397Z,39.40
2023-02-09T09:03:59.914Z,39.92
2023-02-09T09:06:30.863Z,40.11
2023-02-09T09:09:01.185Z,39.77
2023-02-09T09:11:31.766Z,40.10
2023-02-09T09:14:02.200Z,40.34
2023-02-09T09:16:33.102Z,39.83
2023-02-09T09:19:08.584Z,40.81
2023-02-09T09:21:39.101Z,40.20
2023-02-09T09:24:10.081Z,40.20
2023-02-09T09:26:45.086Z,38.49
2023-02-09T09:29:15.907Z,37.25
2023-02-09T09:31:46.432Z,38.12
2023-02-09T09:34:18.284Z,38.93
2023-02-09T09:36:48.583Z,39.42
2023-02-09T09:39:19.026Z,41.66
2023-02-09T09:41:52.028Z,41.98
2023-02-09T09:44:31.554Z,42.50
2023-02-09T09:47:05.586Z,41.63
2023-02-09T09:49:38.143Z,41.17
2023-02-09T09:52:26.872Z,39.31
2023-02-09T09:54:58.414Z,39.31
2023-02-09T09:57:31.485Z,38.22
2023-02-09T10:00:04.292Z,40.14
2023-02-09T10:02:35.555Z,38.91
2023-02-09T10:05:15.564Z,38.91
2023-02-09T10:07:53.058Z,37.24
2023-02-09T10:10:55.792Z,37.15
2023-02-09T10:13:42.404Z,38.00
2023-02-09T10:16:36.292Z,35.23
2023-02-09T10:19:23.603Z,38.76
2023-02-09T10:21:55.680Z,38.76
2023-02-09T10:24:32.090Z,40.04
2023-02-09T10:27:22.917Z,41.32
2023-02-09T10:29:53.426Z,40.81
2023-02-09T10:32:29.506Z,40.65
2023-02-09T10:35:00.600Z,40.25
2023-02-09T10:37:39.016Z,39.88
2023-02-09T10:40:46.618Z,41.25
2023-02-09T10:43:32.183Z,43.79
2023-02-09T10:48:58.908Z,40.10
2023-02-09T10:51:30.141Z,46.22
2023-02-09T10:54:07.580Z,42.76
2023-02-09T10:56:49.790Z,42.76
2023-02-09T10:59:30.083Z,40.04
2023-02-09T11:05:09.064Z,40.76
2023-02-09T11:07:43.702Z,40.76
2023-02-09T11:10:14.578Z,40.76
2023-02-09T11:12:45.240Z,40.76
2023-02-09T11:18:34.603Z,38.85
2023-02-09T11:24:17.996Z,38.53
2023-02-09T11:26:57.692Z,39.16
2023-02-09T11:29:30.940Z,39.29
2023-02-09T11:32:33.885Z,39.77
2023-02-09T11:35:20.170Z,37.91
2023-02-09T11:37:54.133Z,37.91
2023-02-09T11:40:48.444Z,38.96
2023-02-09T11:43:35.802Z,37.56
2023-02-09T11:46:12.077Z,39.05
2023-02-09T11:48:45.915Z,39.47
2023-02-09T11:51:19.616Z,39.40
2023-02-09T11:54:31.824Z,40.14
2023-02-09T11:57:07.415Z,42.85
2023-02-09T11:59:43.459Z,39.60
2023-02-09T12:05:34.429Z,38.32
2023-02-09T12:08:27.784Z,38.93
2023-02-09T12:11:19.360Z,38.47
2023-02-09T12:14:10.913Z,38.47
2023-02-09T12:17:11.717Z,41.39
2023-02-09T12:19:46.702Z,39.80
2023-02-09T12:22:37.823Z,37.17
2023-02-09T12:25:25.033Z,37.81
2023-02-09T12:28:12.023Z,37.81
2023-02-09T12:30:47.824Z,37.83
2023-02-09T12:33:31.913Z,39.80
2023-02-09T12:39:04.143Z,43.10
2023-02-09T12:41:31.303Z,43.72
2023-02-09T12:44:14.338Z,44.96
2023-02-09T12:46:51.532Z,44.36
2023-02-09T12:49:56.957Z,44.96
2023-02-09T12:52:23.764Z,44.48
2023-02-09T12:55:00.441Z,47.56
2023-02-09T12:57:48.524Z,49.40
2023-02-09T13:00:27.568Z,49.40
2023-02-09T13:03:00.777Z,48.18
2023-02-09T13:05:36.365Z,48.18
2023-02-09T13:08:36.400Z,50.36
2023-02-09T13:11:08.508Z,50.36
2023-02-09T13:13:59.983Z,48.59
2023-02-09T13:16:49.881Z,50.13
2023-02-09T13:19:47.691Z,49.52
2023-02-09T13:22:33.529Z,51.77
2023-02-09T13:25:22.260Z,48.80
2023-02-09T13:28:04.148Z,49.22
2023-02-09T13:30:39.752Z,48.26
2023-02-09T13:33:42.887Z,48.26
2023-02-09T13:36:57.956Z,48.46
2023-02-09T13:39:33.906Z,50.32
2023-02-09T13:42:19.277Z,50.17
2023-02-09T13:45:00.504Z,50.63
2023-02-09T13:47:34.550Z,50.19
2023-02-09T13:50:13.787Z,49.97
2023-02-09T13:52:44.360Z,51.13
2023-02-09T13:55:23.260Z,51.13
2023-02-09T13:58:02.210Z,51.69
2023-02-09T14:00:45.860Z,51.55
2023-02-09T14:03:22.369Z,51.55
2023-02-09T14:05:58.446Z,51.25
2023-02-09T14:08:32.047Z,53.93
2023-02-09T14:11:11.439Z,51.98
2023-02-09T14:13:45.410Z,51.83
2023-02-09T14:16:23.175Z,51.31
2023-02-09T14:19:02.732Z,52.63
2023-02-09T14:21:45.130Z,53.45
2023-02-09T14:24:27.027Z,52.57
2023-02-09T14:27:07.822Z,52.00
2023-02-09T14:29:58.901Z,52.11
2023-02-09T14:32:36.835Z,52.40
2023-02-09T14:35:28.100Z,52.62
2023-02-09T14:38:01.668Z,53.02
2023-02-09T14:40:35.193Z,54.29
2023-02-09T14:43:14.686Z,54.04
2023-02-09T14:46:16.845Z,54.62
2023-02-09T14:48:50.886Z,54.62
2023-02-09T14:51:21.779Z,56.41
2023-02-09T14:53:52.098Z,55.40
2023-02-09T14:56:34.284Z,55.40
2023-02-09T14:59:06.291Z,57.06
2023-02-09T15:01:38.741Z,57.06
2023-02-09T15:04:11.447Z,57.50
2023-02-09T15:06:46.597Z,56.76
2023-02-09T15:09:23.069Z,57.13
2023-02-09T15:11:55.892Z,58.27
2023-02-09T15:14:27.808Z,58.72
2023-02-09T15:17:02.403Z,59.85
2023-02-09T15:19:38.451Z,59.66
2023-02-09T15:22:09.040Z,59.66
2023-02-09T15:24:53.381Z,60.54
2023-02-09T15:27:38.181Z,60.54
2023-02-09T15:30:28.789Z,61.27
2023-02-09T15:33:01.306Z,63.24
2023-02-09T15:35:34.308Z,63.48
2023-02-09T15:38:10.306Z,63.05
2023-02-09T15:40:51.215Z,63.53
2023-02-09T15:43:24.542Z,63.53
2023-02-09T15:45:59.291Z,64.62
2023-02-09T15:48:31.987Z,64.84
2023-02-09T15:51:03.659Z,64.15
2023-02-09T15:53:37.318Z,64.54
2023-02-09T15:56:14.808Z,64.69
2023-02-09T15:58:46.256Z,64.56
2023-02-09T16:01:18.913Z,64.56
2023-02-09T16:03:49.362Z,65.34
2023-02-09T16:06:28.039Z,64.77
2023-02-09T16:08:59.895Z,64.67
2023-02-09T16:11:35.821Z,64.67
2023-02-09T16:14:12.527Z,65.02
2023-02-09T16:16:45.361Z,65.92
2023-02-09T16:19:17.302Z,65.92
2023-02-09T16:22:04.613Z,65.62
2023-02-09T16:24:33.890Z,65.92
2023-02-09T16:27:28.073Z,65.82
2023-02-09T16:30:02.497Z,66.00
2023-02-09T16:32:36.376Z,66.32
2023-02-09T16:35:17.039Z,67.21
2023-02-09T16:37:49.801Z,68.11
2023-02-09T16:40:30.685Z,67.82
2023-02-09T16:43:02.113Z,67.13
2023-02-09T16:45:35.965Z,67.13
2023-02-09T16:48:07.857Z,67.00
2023-02-09T16:50:40.468Z,66.42
2023-02-09T16:56:26.931Z,66.45
2023-02-09T16:59:04.880Z,66.80
2023-02-09T17:01:38.765Z,67.56
2023-02-09T17:04:12.150Z,67.56
2023-02-09T17:06:43.227Z,68.58
2023-02-09T17:09:15.617Z,68.55
2023-02-09T17:11:50.085Z,68.52
2023-02-09T17:14:24.013Z,68.65
2023-02-09T17:16:59.495Z,68.00
2023-02-09T17:19:47.370Z,67.85
2023-02-09T17:22:10.681Z,67.85
2023-02-09T17:24:42.306Z,69.54
2023-02-09T17:27:22.001Z,69.52
2023-02-09T17:29:52.381Z,69.57
2023-02-09T17:38:35.076Z,71.83
2023-02-09T17:41:17.973Z,71.99
2023-02-09T17:43:49.732Z,72.02
2023-02-09T17:46:34.568Z,72.97
2023-02-09T17:49:03.800Z,73.57
2023-02-09T17:51:38.403Z,73.18
2023-02-09T17:54:14.176Z,72.14
2023-02-09T17:56:47.776Z,72.14
2023-02-09T17:59:25.099Z,72.40
2023-02-09T18:02:17.961Z,73.86
2023-02-09T18:04:54.716Z,72.91
2023-02-09T18:07:26.599Z,72.55
2023-02-09T18:09:57.011Z,72.34
2023-02-09T18:12:28.490Z,72.71
2023-02-09T18:15:02.981Z,73.05
2023-02-09T18:20:43.379Z,72.55
2023-02-09T18:22:05.258Z,72.99
2023-02-09T18:23:17.809Z,72.15
2023-02-09T18:25:50.241Z,72.15
2023-02-09T18:28:27.717Z,72.04
2023-02-09T18:31:08.891Z,72.89
2023-02-09T18:33:39.135Z,72.50
2023-02-09T18:36:18.961Z,72.41
2023-02-09T18:42:10.967Z,73.00
2023-02-09T18:44:58.770Z,72.50
2023-02-09T18:47:33.964Z,72.50
2023-02-09T18:50:25.481Z,74.20
2023-02-09T18:53:24.550Z,73.16
2023-02-09T18:55:59.584Z,72.46
2023-02-09T18:58:33.193Z,71.36
2023-02-09T19:01:10.996Z,70.88
2023-02-09T19:03:44.614Z,72.11
2023-02-09T19:06:23.858Z,72.11
2023-02-09T19:08:56.878Z,72.59
2023-02-09T19:11:27.345Z,72.59
2023-02-09T19:14:11.704Z,72.42
2023-02-09T19:16:33.265Z,73.52
2023-02-09T19:19:06.681Z,73.52
2023-02-09T19:22:00.461Z,72.31
2023-02-09T19:24:32.058Z,71.75
2023-02-09T19:27:04.154Z,70.90
2023-02-09T19:29:47.471Z,70.90
2023-02-09T19:32:21.275Z,70.19
2023-02-09T19:34:55.178Z,71.39
2023-02-09T19:37:27.457Z,70.55
2023-02-09T19:40:03.839Z,70.55
2023-02-09T19:42:39.086Z,71.10
2023-02-09T19:45:11.929Z,72.47
2023-02-09T19:47:46.931Z,69.99
2023-02-09T19:50:18.798Z,70.55
2023-02-09T19:52:53.630Z,72.04
2023-02-09T19:58:55.012Z,72.71
2023-02-09T20:01:27.686Z,71.81
2023-02-09T20:04:08.164Z,71.43
2023-02-09T20:06:47.001Z,71.86
2023-02-09T20:09:20.926Z,72.07
2023-02-09T20:12:06.108Z,71.83
2023-02-09T20:15:29.257Z,71.83
2023-02-09T20:17:16.559Z,70.97
2023-02-09T20:19:56.577Z,73.00
2023-02-09T20:22:28.772Z,71.89
2023-02-09T20:25:03.219Z,71.97
2023-02-09T20:27:38.549Z,70.36
2023-02-09T20:30:10.872Z,69.91
2023-02-09T20:32:44.758Z,69.20
2023-02-09T20:35:21.206Z,68.68
2023-02-09T20:37:54.624Z,68.68
2023-02-09T20:40:27.477Z,69.81
2023-02-09T20:42:58.240Z,69.81
2023-02-09T20:45:30.352Z,70.27
2023-02-09T20:48:07.498Z,69.35
2023-02-09T20:53:52.900Z,71.16
2023-02-09T20:56:24.108Z,69.82
2023-02-09T20:58:58.443Z,69.73
2023-02-09T21:01:29.443Z,70.13
2023-02-09T21:04:00.309Z,69.59
2023-02-09T21:06:31.480Z,69.59
2023-02-09T21:11:57.627Z,71.28
2023-02-09T21:14:41.206Z,72.23
2023-02-09T21:17:10.426Z,70.74
2023-02-09T21:19:45.413Z,70.31
2023-02-09T21:22:20.355Z,70.57
2023-02-09T21:24:50.754Z,71.53
2023-02-09T21:27:21.169Z,71.43
2023-02-09T21:29:51.635Z,71.43
2023-02-09T21:32:28.080Z,72.26
2023-02-09T21:34:58.352Z,74.04
2023-02-09T21:37:31.047Z,75.02
2023-02-09T21:40:01.408Z,74.40
2023-02-09T21:42:32.088Z,74.03
2023-02-09T21:45:28.879Z,73.75
2023-02-09T21:48:02.433Z,73.58
2023-02-09T21:50:34.611Z,73.91
2023-02-09T21:53:08.536Z,73.91
2023-02-09T21:55:39.464Z,74.48
2023-02-09T21:58:13.502Z,74.94
2023-02-09T22:00:43.789Z,74.68
2023-02-09T22:03:14.028Z,75.18
2023-02-09T22:05:44.439Z,77.23
2023-02-09T22:08:16.750Z,77.23
2023-02-09T22:10:49.489Z,76.57
2023-02-09T22:13:19.550Z,74.83
2023-02-09T22:15:51.564Z,74.31
2023-02-09T22:18:22.963Z,75.16
2023-02-09T22:20:53.496Z,75.42
2023-02-09T22:23:24.667Z,75.99
2023-02-09T22:28:53.164Z,75.48
2023-02-09T22:31:23.544Z,75.43
2023-02-09T22:33:58.218Z,75.90
2023-02-09T22:36:29.277Z,75.76
2023-02-09T22:39:00.997Z,75.45
2023-02-09T22:41:40.629Z,74.79
2023-02-09T22:44:41.651Z,74.94
2023-02-09T22:47:12.066Z,74.58
2023-02-09T22:49:42.940Z,75.56
2023-02-09T22:52:13.667Z,75.50
2023-02-09T22:54:44.001Z,76.12
2023-02-09T22:57:15.770Z,76.48
2023-02-09T22:59:48.012Z,77.68
2023-02-09T23:02:19.063Z,77.48
2023-02-09T23:04:49.475Z,77.48
2023-02-09T23:07:21.227Z,76.62
2023-02-09T23:09:52.017Z,76.96
2023-02-09T23:12:22.709Z,76.80
2023-02-09T23:14:54.754Z,76.80
2023-02-09T23:17:25.278Z,77.32
2023-02-09T23:19:57.017Z,78.17
2023-02-09T23:22:27.672Z,77.76
2023-02-09T23:25:00.744Z,78.75
2023-02-09T23:27:31.061Z,79.09
2023-02-09T23:30:01.210Z,78.37
2023-02-09T23:32:31.909Z,77.97
2023-02-09T23:35:02.399Z,78.02
2023-02-09T23:37:37.901Z,78.02
2023-02-09T23:40:05.309Z,78.37
2023-02-09T23:42:36.767Z,79.45
2023-02-09T23:45:07.155Z,78.58
2023-02-09T23:47:40.732Z,78.56
2023-02-09T23:50:11.229Z,78.84
2023-02-09T23:52:42.558Z,78.84
2023-02-09T23:55:14.566Z,79.68
2023-02-09T23:57:45.081Z,79.68
